createdAt,value
2022-12-08T00:02:22.267Z,8.13
2022-12-08T00:05:08.453Z,8.50
2022-12-08T00:07:57.660Z,8.30
2022-12-08T00:10:48.492Z,8.27
2022-12-08T00:13:14.931Z,7.57
2022-12-08T00:15:43.586Z,7.60
2022-12-08T00:18:12.216Z,8.47
2022-12-08T00:20:40.974Z,7.60
2022-12-08T00:23:10.928Z,7.10
2022-12-08T00:25:39.498Z,7.43
2022-12-08T00:28:08.105Z,7.03
2022-12-08T00:30:36.647Z,8.17
2022-12-08T00:33:05.318Z,8.20
2022-12-08T00:35:36.519Z,9.17
2022-12-08T00:38:07.352Z,8.37
2022-12-08T00:40:37.433Z,8.53
2022-12-08T00:43:06.295Z,7.87
2022-12-08T00:45:34.985Z,8.90
2022-12-08T00:48:03.594Z,8.97
2022-12-08T00:50:32.289Z,8.83
2022-12-08T00:53:00.931Z,9.03
2022-12-08T00:55:29.596Z,8.47
2022-12-08T00:57:59.720Z,9.43
2022-12-08T01:00:28.419Z,8.73
2022-12-08T01:02:57.085Z,8.30
2022-12-08T01:05:25.844Z,8.50
2022-12-08T01:07:54.480Z,8.97
2022-12-08T01:10:23.160Z,9.13
2022-12-08T01:12:51.827Z,9.07
2022-12-08T01:15:21.958Z,8.83
2022-12-08T01:17:50.584Z,8.13
2022-12-08T01:20:19.217Z,8.67
2022-12-08T01:22:47.808Z,8.97
2022-12-08T01:25:16.435Z,11.23
2022-12-08T01:27:45.046Z,8.80
2022-12-08T01:30:15.190Z,8.20
2022-12-08T01:32:45.163Z,8.77
2022-12-08T01:35:14.128Z,8.93
2022-12-08T01:37:42.779Z,9.10
2022-12-08T01:40:12.072Z,7.93
2022-12-08T01:42:40.785Z,8.20
2022-12-08T01:45:16.325Z,8.53
2022-12-08T01:47:53.387Z,8.60
2022-12-08T01:50:23.819Z,8.67
2022-12-08T01:52:58.248Z,8.40
2022-12-08T01:55:32.407Z,7.80
2022-12-08T01:58:07.392Z,7.50
2022-12-08T02:00:36.007Z,7.13
2022-12-08T02:03:13.203Z,7.40
2022-12-08T02:05:43.102Z,6.60
2022-12-08T02:08:14.648Z,8.00
2022-12-08T02:10:44.654Z,9.17
2022-12-08T02:13:17.997Z,10.17
2022-12-08T02:16:00.670Z,9.63
2022-12-08T02:19:22.155Z,9.13
2022-12-08T02:21:55.266Z,9.20
2022-12-08T02:24:36.088Z,7.83
2022-12-08T02:27:33.874Z,7.97
2022-12-08T02:30:23.148Z,9.50
2022-12-08T02:33:59.065Z,8.10
2022-12-08T02:36:42.587Z,9.10
2022-12-08T02:39:24.583Z,8.20
2022-12-08T02:42:03.527Z,7.70
2022-12-08T02:44:38.629Z,9.70
2022-12-08T02:47:13.138Z,7.65
2022-12-08T02:49:41.883Z,7.03
2022-12-08T02:52:45.108Z,9.33
2022-12-08T02:55:27.693Z,9.97
2022-12-08T02:58:43.866Z,9.50
2022-12-08T03:01:36.422Z,10.07
2022-12-08T03:04:11.303Z,10.83
2022-12-08T03:06:51.096Z,10.73
2022-12-08T03:09:35.364Z,10.37
2022-12-08T03:12:15.641Z,9.13
2022-12-08T03:14:51.511Z,11.30
2022-12-08T03:17:24.419Z,11.53
2022-12-08T03:19:55.700Z,10.97
2022-12-08T03:22:28.570Z,9.07
2022-12-08T03:24:59.389Z,8.47
2022-12-08T03:27:32.566Z,8.67
2022-12-08T03:30:03.475Z,8.83
2022-12-08T03:32:39.942Z,9.20
2022-12-08T03:35:15.688Z,9.20
2022-12-08T03:37:45.668Z,8.03
2022-12-08T03:40:19.378Z,7.97
2022-12-08T03:42:48.020Z,9.53
2022-12-08T03:45:16.626Z,8.37
2022-12-08T03:47:45.267Z,9.37
2022-12-08T03:50:14.035Z,9.03
2022-12-08T03:52:42.646Z,8.73
2022-12-08T03:55:11.533Z,8.60
2022-12-08T03:57:41.490Z,8.60
2022-12-08T04:00:16.919Z,9.43
2022-12-08T04:02:45.690Z,8.50
2022-12-08T04:05:14.533Z,8.60
2022-12-08T04:07:43.799Z,8.30
2022-12-08T04:10:12.990Z,8.30
2022-12-08T04:12:43.062Z,8.77
2022-12-08T04:15:12.926Z,8.73
2022-12-08T04:17:41.525Z,8.97
2022-12-08T04:20:11.162Z,8.87
2022-12-08T04:22:39.753Z,8.90
2022-12-08T04:25:09.768Z,9.63
2022-12-08T04:27:38.436Z,11.47
2022-12-08T04:30:11.209Z,8.83
2022-12-08T04:32:42.944Z,8.90
2022-12-08T04:35:16.147Z,9.07
2022-12-08T04:37:45.329Z,9.37
2022-12-08T04:40:15.782Z,9.67
2022-12-08T04:42:44.350Z,11.53
2022-12-08T04:45:14.814Z,11.50
2022-12-08T04:47:43.470Z,10.63
2022-12-08T04:50:13.250Z,10.43
2022-12-08T04:52:41.950Z,10.40
2022-12-08T04:55:11.370Z,10.47
2022-12-08T04:57:40.029Z,11.47
2022-12-08T05:00:10.329Z,10.40
2022-12-08T05:02:40.521Z,12.97
2022-12-08T05:05:10.147Z,11.40
2022-12-08T05:07:38.994Z,10.67
2022-12-08T05:10:09.852Z,11.53
2022-12-08T05:12:38.469Z,12.90
2022-12-08T05:15:08.842Z,11.53
2022-12-08T05:17:37.431Z,15.03
2022-12-08T05:20:09.451Z,17.27
2022-12-08T05:22:38.272Z,15.17
2022-12-08T05:25:07.634Z,15.67
2022-12-08T05:27:37.062Z,13.27
2022-12-08T05:30:07.292Z,14.07
2022-12-08T05:32:36.031Z,13.73
2022-12-08T05:35:06.400Z,14.00
2022-12-08T05:37:34.984Z,13.50
2022-12-08T05:40:04.223Z,15.43
2022-12-08T05:42:32.954Z,17.00
2022-12-08T05:45:01.538Z,15.17
2022-12-08T05:47:35.729Z,17.20
2022-12-08T05:50:07.538Z,16.33
2022-12-08T05:52:36.291Z,14.63
2022-12-08T05:55:05.406Z,16.03
2022-12-08T05:57:34.045Z,15.73
2022-12-08T06:00:03.133Z,15.57
2022-12-08T06:02:32.143Z,18.20
2022-12-08T06:05:00.874Z,17.63
2022-12-08T06:07:30.931Z,16.53
2022-12-08T06:09:59.500Z,16.93
2022-12-08T06:12:28.210Z,21.30
2022-12-08T06:14:56.762Z,18.17
2022-12-08T06:17:25.458Z,22.33
2022-12-08T06:19:54.043Z,25.20
2022-12-08T06:22:22.760Z,23.47
2022-12-08T06:24:52.710Z,26.43
2022-12-08T06:27:21.475Z,24.83
2022-12-08T06:29:50.134Z,28.60
2022-12-08T06:32:20.810Z,25.17
2022-12-08T06:34:52.995Z,21.47
2022-12-08T06:37:21.546Z,21.07
2022-12-08T06:39:51.958Z,22.23
2022-12-08T06:42:37.897Z,20.10
2022-12-08T06:45:08.089Z,22.43
2022-12-08T06:47:36.845Z,23.07
2022-12-08T06:50:07.129Z,23.57
2022-12-08T06:52:43.009Z,25.47
2022-12-08T06:55:42.433Z,21.17
2022-12-08T06:58:06.533Z,25.80
2022-12-08T07:00:35.190Z,22.57
2022-12-08T07:03:03.783Z,22.07
2022-12-08T07:05:32.423Z,23.20
2022-12-08T07:08:01.065Z,27.80
2022-12-08T07:10:31.406Z,24.93
2022-12-08T07:13:00.261Z,25.70
2022-12-08T07:15:28.894Z,26.37
2022-12-08T07:18:00.077Z,24.13
2022-12-08T07:20:29.501Z,28.10
2022-12-08T07:22:58.254Z,23.40
2022-12-08T07:25:27.062Z,29.33
2022-12-08T07:27:57.057Z,25.20
2022-12-08T07:30:25.971Z,25.70
2022-12-08T07:32:54.577Z,24.57
2022-12-08T07:35:23.271Z,24.73
2022-12-08T07:37:52.027Z,26.37
2022-12-08T07:40:20.873Z,27.13
2022-12-08T07:42:49.517Z,26.77
2022-12-08T07:45:19.515Z,24.80
2022-12-08T07:47:48.139Z,25.87
2022-12-08T07:50:16.863Z,28.50
2022-12-08T07:52:45.425Z,24.57
2022-12-08T07:55:14.020Z,24.87
2022-12-08T07:57:42.605Z,24.43
2022-12-08T08:00:13.856Z,26.17
2022-12-08T08:02:44.106Z,28.50
2022-12-08T08:05:13.720Z,25.77
2022-12-08T08:07:44.689Z,31.63
2022-12-08T08:10:14.388Z,24.90
2022-12-08T08:12:42.950Z,26.80
2022-12-08T08:15:12.749Z,27.10
2022-12-08T08:17:41.506Z,30.67
2022-12-08T08:20:13.433Z,27.40
2022-12-08T08:22:41.974Z,28.33
2022-12-08T08:25:10.994Z,28.20
2022-12-08T08:27:39.549Z,26.80
2022-12-08T08:30:15.222Z,29.17
2022-12-08T08:32:47.032Z,28.60
2022-12-08T08:35:17.327Z,28.13
2022-12-08T08:37:49.159Z,27.27
2022-12-08T08:40:18.577Z,28.00
2022-12-08T08:42:47.295Z,28.33
2022-12-08T08:45:16.040Z,28.07
2022-12-08T08:47:44.669Z,24.83
2022-12-08T08:50:13.501Z,29.17
2022-12-08T08:52:43.528Z,28.50
2022-12-08T08:55:12.137Z,27.70
2022-12-08T08:57:40.751Z,27.93
2022-12-08T09:00:11.245Z,29.20
2022-12-08T09:02:40.254Z,27.70
2022-12-08T09:05:10.070Z,33.60
2022-12-08T09:07:38.845Z,31.97
2022-12-08T09:10:11.468Z,33.53
2022-12-08T09:12:40.035Z,25.33
2022-12-08T09:15:09.554Z,28.20
2022-12-08T09:17:38.305Z,28.50
2022-12-08T09:20:08.860Z,28.43
2022-12-08T09:22:37.510Z,31.53
2022-12-08T09:25:07.056Z,29.20
2022-12-08T09:27:37.261Z,34.40
2022-12-08T09:30:07.674Z,34.10
2022-12-08T09:32:36.659Z,29.33
2022-12-08T09:35:05.867Z,37.17
2022-12-08T09:37:35.159Z,28.67
2022-12-08T09:40:03.914Z,31.57
2022-12-08T09:42:45.870Z,32.30
2022-12-08T09:45:18.251Z,33.97
2022-12-08T09:48:00.700Z,29.37
2022-12-08T09:50:37.990Z,29.93
2022-12-08T09:53:15.292Z,35.20
2022-12-08T09:55:50.194Z,30.77
2022-12-08T09:58:30.110Z,33.93
2022-12-08T10:00:58.768Z,37.17
2022-12-08T10:03:31.677Z,36.13
2022-12-08T10:06:12.623Z,36.70
2022-12-08T10:08:52.325Z,29.53
2022-12-08T10:11:30.651Z,30.43
2022-12-08T10:14:16.815Z,30.50
2022-12-08T10:16:53.268Z,33.47
2022-12-08T10:19:26.471Z,28.20
2022-12-08T10:21:57.871Z,30.07
2022-12-08T10:24:38.463Z,37.83
2022-12-08T10:27:12.639Z,32.80
2022-12-08T10:29:43.353Z,32.97
2022-12-08T10:32:19.506Z,29.97
2022-12-08T10:35:04.541Z,27.37
2022-12-08T10:37:33.231Z,29.33
2022-12-08T10:40:07.243Z,26.20
2022-12-08T10:42:41.664Z,25.20
2022-12-08T10:45:27.703Z,24.60
2022-12-08T10:48:05.326Z,25.50
2022-12-08T10:50:37.332Z,29.37
2022-12-08T10:53:16.430Z,24.53
2022-12-08T10:55:50.617Z,23.90
2022-12-08T10:58:31.115Z,23.57
2022-12-08T11:01:07.415Z,21.33
2022-12-08T11:03:44.954Z,21.40
2022-12-08T11:06:20.712Z,20.63
2022-12-08T11:08:54.054Z,21.10
2022-12-08T11:11:37.878Z,23.27
2022-12-08T11:14:09.727Z,24.53
2022-12-08T11:16:44.137Z,24.87
2022-12-08T11:19:19.652Z,22.20
2022-12-08T11:21:48.944Z,21.10
2022-12-08T11:24:28.107Z,21.47
2022-12-08T11:27:03.941Z,21.77
2022-12-08T11:29:36.491Z,23.50
2022-12-08T11:32:13.526Z,23.53
2022-12-08T11:34:47.922Z,21.50
2022-12-08T11:37:26.598Z,22.77
2022-12-08T11:40:05.732Z,21.60
2022-12-08T11:42:47.217Z,21.37
2022-12-08T11:45:27.074Z,22.87
2022-12-08T11:48:07.834Z,21.07
2022-12-08T11:50:46.689Z,19.90
2022-12-08T11:53:27.670Z,21.27
2022-12-08T11:56:01.935Z,22.53
2022-12-08T11:58:42.619Z,21.60
2022-12-08T12:01:21.769Z,23.30
2022-12-08T12:04:02.733Z,20.93
2022-12-08T12:07:26.386Z,19.73
2022-12-08T12:10:14.749Z,23.30
2022-12-08T12:13:00.617Z,21.53
2022-12-08T12:16:13.141Z,21.70
2022-12-08T12:18:46.907Z,24.47
2022-12-08T12:21:23.968Z,21.93
2022-12-08T12:23:58.949Z,22.27
2022-12-08T12:26:30.726Z,22.77
2022-12-08T12:29:06.406Z,24.90
2022-12-08T12:31:42.700Z,20.63
2022-12-08T12:34:25.203Z,21.00
2022-12-08T12:36:59.665Z,20.77
2022-12-08T12:39:32.522Z,23.60
2022-12-08T12:42:03.759Z,22.40
2022-12-08T12:44:44.452Z,25.33
2022-12-08T12:47:56.726Z,25.23
2022-12-08T12:50:45.158Z,23.60
2022-12-08T12:54:16.759Z,24.90
2022-12-08T12:56:54.123Z,22.80
2022-12-08T12:59:50.107Z,22.07
2022-12-08T13:02:28.800Z,24.97
2022-12-08T13:05:09.387Z,21.40
2022-12-08T13:07:46.832Z,23.27
2022-12-08T13:10:22.058Z,20.73
2022-12-08T13:13:17.690Z,21.50
2022-12-08T13:15:53.967Z,20.50
2022-12-08T13:18:27.737Z,20.13
2022-12-08T13:21:04.757Z,22.90
2022-12-08T13:23:49.380Z,21.33
2022-12-08T13:26:22.471Z,21.80
2022-12-08T13:29:25.106Z,21.73
2022-12-08T13:31:55.485Z,21.03
2022-12-08T13:34:36.069Z,22.77
2022-12-08T13:37:26.789Z,24.00
2022-12-08T13:40:02.014Z,20.67
2022-12-08T13:42:38.509Z,21.40
2022-12-08T13:45:48.525Z,21.40
2022-12-08T13:48:36.749Z,20.27
2022-12-08T13:57:10.638Z,22.47
2022-12-08T13:59:46.232Z,20.33
2022-12-08T14:02:26.392Z,21.97
2022-12-08T14:07:49.540Z,23.40
2022-12-08T14:10:23.569Z,22.17
2022-12-08T14:12:59.072Z,27.00
2022-12-08T14:15:34.004Z,26.53
2022-12-08T14:18:05.922Z,23.63
2022-12-08T14:20:58.028Z,26.33
2022-12-08T14:23:28.431Z,22.33
2022-12-08T14:25:58.225Z,24.57
2022-12-08T14:28:27.270Z,24.00
2022-12-08T14:30:57.519Z,26.67
2022-12-08T14:33:28.453Z,26.83
2022-12-08T14:35:58.150Z,23.93
2022-12-08T14:38:27.882Z,22.33
2022-12-08T14:41:06.641Z,21.50
2022-12-08T14:43:36.201Z,23.60
2022-12-08T14:46:21.070Z,25.37
2022-12-08T14:48:51.226Z,22.50
2022-12-08T14:51:30.010Z,20.03
2022-12-08T14:54:02.473Z,22.67
2022-12-08T14:56:39.342Z,22.63
2022-12-08T14:59:15.703Z,25.07
2022-12-08T15:01:45.775Z,23.23
2022-12-08T15:04:21.560Z,21.90
2022-12-08T15:06:58.262Z,23.57
2022-12-08T15:09:36.650Z,25.53
2022-12-08T15:12:16.426Z,22.03
2022-12-08T15:14:57.794Z,25.00
2022-12-08T15:17:36.108Z,27.67
2022-12-08T15:20:30.171Z,24.90
2022-12-08T15:23:04.214Z,25.97
2022-12-08T15:25:35.296Z,22.17
2022-12-08T15:28:04.790Z,24.00
2022-12-08T15:30:34.434Z,22.87
2022-12-08T15:33:03.097Z,20.33
2022-12-08T15:35:40.363Z,22.07
2022-12-08T15:38:20.066Z,21.10
2022-12-08T15:40:48.757Z,18.93
2022-12-08T15:43:17.364Z,20.77
2022-12-08T15:45:58.478Z,21.33
2022-12-08T15:48:31.366Z,21.93
2022-12-08T15:51:01.724Z,21.63
2022-12-08T15:53:30.467Z,24.30
2022-12-08T15:58:56.964Z,33.63
2022-12-08T16:01:26.678Z,22.70
2022-12-08T16:07:20.793Z,29.27
2022-12-08T16:09:42.858Z,27.83
2022-12-08T16:13:26.788Z,20.43
2022-12-08T16:15:50.136Z,20.90
2022-12-08T16:18:23.250Z,19.47
2022-12-08T16:23:45.833Z,26.70
2022-12-08T16:29:10.696Z,22.97
2022-12-08T16:31:43.985Z,19.17
2022-12-08T16:34:12.802Z,20.80
2022-12-08T16:36:41.834Z,21.43
2022-12-08T16:39:28.571Z,21.53
2022-12-08T16:42:16.187Z,21.20
2022-12-08T16:44:45.134Z,20.90
2022-12-08T16:47:14.283Z,21.07
2022-12-08T16:49:42.999Z,23.30
2022-12-08T16:52:12.405Z,21.73
2022-12-08T16:54:42.446Z,20.17
2022-12-08T16:57:12.232Z,21.13
2022-12-08T16:59:40.987Z,21.57
2022-12-08T17:02:16.282Z,22.93
2022-12-08T17:04:45.330Z,21.73
2022-12-08T17:07:14.341Z,22.83
2022-12-08T17:10:39.717Z,23.73
2022-12-08T17:12:45.827Z,22.20
2022-12-08T17:15:18.526Z,32.23
2022-12-08T17:17:49.130Z,26.10
2022-12-08T17:20:21.807Z,22.60
2022-12-08T17:22:51.632Z,23.53
2022-12-08T17:25:21.932Z,23.97
2022-12-08T17:27:50.575Z,23.33
2022-12-08T17:30:19.774Z,24.57
2022-12-08T17:32:49.873Z,23.70
2022-12-08T17:35:19.831Z,22.93
2022-12-08T17:37:48.483Z,25.87
2022-12-08T17:40:17.182Z,24.50
2022-12-08T17:42:47.346Z,23.27
2022-12-08T17:45:16.225Z,24.07
2022-12-08T17:47:44.837Z,25.53
2022-12-08T17:50:13.606Z,23.27
2022-12-08T17:52:42.241Z,25.13
2022-12-08T17:55:11.644Z,23.67
2022-12-08T17:57:40.235Z,26.07
2022-12-08T18:00:15.898Z,23.00
2022-12-08T18:02:44.609Z,24.07
2022-12-08T18:05:13.347Z,25.73
2022-12-08T18:07:42.131Z,32.67
2022-12-08T18:10:11.491Z,36.83
2022-12-08T18:12:40.308Z,27.93
2022-12-08T18:15:17.018Z,23.60
2022-12-08T18:17:46.214Z,26.67
2022-12-08T18:20:15.735Z,26.40
2022-12-08T18:22:45.635Z,24.60
2022-12-08T18:25:15.154Z,25.87
2022-12-08T18:27:49.952Z,27.23
2022-12-08T18:30:20.814Z,23.47
2022-12-08T18:32:54.207Z,23.97
2022-12-08T18:35:27.009Z,23.13
2022-12-08T18:37:55.687Z,22.80
2022-12-08T18:40:24.502Z,25.03
2022-12-08T18:42:53.226Z,25.30
2022-12-08T18:45:23.444Z,23.87
2022-12-08T18:47:53.263Z,24.60
2022-12-08T18:50:28.174Z,26.63
2022-12-08T18:53:14.801Z,29.67
2022-12-08T18:56:16.679Z,32.57
2022-12-08T18:58:45.234Z,25.03
2022-12-08T19:01:17.282Z,31.77
2022-12-08T19:04:05.211Z,31.27
2022-12-08T19:06:34.940Z,25.73
2022-12-08T19:09:04.883Z,27.37
2022-12-08T19:11:33.497Z,22.87
2022-12-08T19:14:02.214Z,23.33
2022-12-08T19:16:32.619Z,26.50
2022-12-08T19:19:01.390Z,26.13
2022-12-08T19:21:29.994Z,34.17
2022-12-08T19:24:00.097Z,30.13
2022-12-08T19:26:29.851Z,25.60
2022-12-08T19:28:59.450Z,26.20
2022-12-08T19:31:28.716Z,24.50
2022-12-08T19:34:01.051Z,26.63
2022-12-08T19:36:35.354Z,26.20
2022-12-08T19:39:23.598Z,22.20
2022-12-08T19:42:09.975Z,25.60
2022-12-08T19:44:54.116Z,24.67
2022-12-08T19:47:25.433Z,23.13
2022-12-08T19:50:16.850Z,25.07
2022-12-08T19:52:48.618Z,24.80
2022-12-08T19:55:20.611Z,25.93
2022-12-08T19:57:49.262Z,26.57
2022-12-08T20:00:19.223Z,24.57
2022-12-08T20:02:48.954Z,25.47
2022-12-08T20:05:18.954Z,41.23
2022-12-08T20:07:47.675Z,42.67
2022-12-08T20:10:22.133Z,28.70
2022-12-08T20:13:15.645Z,28.93
2022-12-08T20:15:45.693Z,31.57
2022-12-08T20:18:16.169Z,26.80
2022-12-08T20:20:48.138Z,29.33
2022-12-08T20:23:18.168Z,26.07
2022-12-08T20:25:47.907Z,26.47
2022-12-08T20:28:16.809Z,24.90
2022-12-08T20:30:49.253Z,25.73
2022-12-08T20:33:20.245Z,25.33
2022-12-08T20:36:00.504Z,24.77
2022-12-08T20:38:30.071Z,25.47
2022-12-08T20:40:59.958Z,23.60
2022-12-08T20:43:28.612Z,24.30
2022-12-08T20:45:57.337Z,36.40
2022-12-08T20:48:26.189Z,26.33
2022-12-08T20:50:56.446Z,24.90
2022-12-08T20:53:25.360Z,26.37
2022-12-08T20:55:54.568Z,28.07
2022-12-08T20:58:23.540Z,26.70
2022-12-08T21:00:52.413Z,26.03
2022-12-08T21:03:21.363Z,27.43
2022-12-08T21:05:51.506Z,27.77
2022-12-08T21:08:25.439Z,25.60
2022-12-08T21:11:01.088Z,26.90
2022-12-08T21:13:29.798Z,25.70
2022-12-08T21:15:58.550Z,23.90
2022-12-08T21:18:27.976Z,26.17
2022-12-08T21:21:03.891Z,28.73
2022-12-08T21:23:35.021Z,27.67
2022-12-08T21:26:04.464Z,28.93
2022-12-08T21:28:33.329Z,28.20
2022-12-08T21:31:02.175Z,25.90
2022-12-08T21:33:31.318Z,28.97
2022-12-08T21:36:05.007Z,30.77
2022-12-08T21:38:35.968Z,29.67
2022-12-08T21:41:06.948Z,30.57
2022-12-08T21:43:36.647Z,27.90
2022-12-08T21:46:06.954Z,28.10
2022-12-08T21:48:35.984Z,29.87
2022-12-08T21:51:06.499Z,31.77
2022-12-08T21:53:36.788Z,29.03
2022-12-08T21:56:10.289Z,30.73
2022-12-08T21:58:39.861Z,28.80
2022-12-08T22:01:09.461Z,27.80
2022-12-08T22:03:40.601Z,29.80
2022-12-08T22:06:12.305Z,31.30
2022-12-08T22:08:43.410Z,28.53
2022-12-08T22:11:13.889Z,29.23
2022-12-08T22:13:43.443Z,27.70
2022-12-08T22:16:14.840Z,31.37
2022-12-08T22:18:43.948Z,29.97
2022-12-08T22:21:15.444Z,27.10
2022-12-08T22:23:46.710Z,30.90
2022-12-08T22:26:15.514Z,28.60
2022-12-08T22:28:45.307Z,29.13
2022-12-08T22:31:17.543Z,26.60
2022-12-08T22:33:46.529Z,29.33
2022-12-08T22:36:18.951Z,31.43
2022-12-08T22:38:49.668Z,27.77
2022-12-08T22:41:19.533Z,29.80
2022-12-08T22:43:50.285Z,28.50
2022-12-08T22:46:22.830Z,30.47
2022-12-08T22:48:53.356Z,27.20
2022-12-08T22:51:22.705Z,27.50
2022-12-08T22:53:53.217Z,26.07
2022-12-08T22:56:22.238Z,28.63
2022-12-08T22:58:51.368Z,33.13
2022-12-08T23:01:26.228Z,26.90
2022-12-08T23:03:55.206Z,29.00
2022-12-08T23:06:24.117Z,28.97
2022-12-08T23:08:55.541Z,28.93
2022-12-08T23:11:29.761Z,30.20
2022-12-08T23:14:01.141Z,28.70
2022-12-08T23:16:30.437Z,27.23
2022-12-08T23:19:00.976Z,30.13
2022-12-08T23:21:29.831Z,26.80
2022-12-08T23:24:02.031Z,27.20
2022-12-08T23:26:33.694Z,27.87
2022-12-08T23:29:02.989Z,27.63
2022-12-08T23:31:32.246Z,27.40
2022-12-08T23:34:01.237Z,28.17
2022-12-08T23:36:30.110Z,31.50
2022-12-08T23:39:00.244Z,28.57
2022-12-08T23:41:29.124Z,29.37
2022-12-08T23:43:58.178Z,28.10
2022-12-08T23:46:27.358Z,26.53
2022-12-08T23:48:56.165Z,30.50
2022-12-08T23:51:24.807Z,29.63
2022-12-08T23:53:53.610Z,28.30
2022-12-08T23:56:29.860Z,28.20
2022-12-08T23:58:58.957Z,29.70
